createdAt,value
2022-10-20T00:03:00.480Z,6.5
2022-10-20T00:13:00.761Z,6.4
2022-10-20T00:23:01.303Z,6.4
2022-10-20T00:33:02.042Z,6.4
2022-10-20T00:43:02.317Z,6.4
2022-10-20T00:53:03.082Z,6.4
2022-10-20T01:03:03.514Z,6.5
2022-10-20T01:13:03.713Z,6.5
2022-10-20T01:23:03.977Z,6.4
2022-10-20T01:33:04.375Z,6.3
2022-10-20T01:43:04.579Z,6.3
2022-10-20T01:53:04.901Z,6.2
2022-10-20T02:03:05.839Z,6.2
2022-10-20T02:13:06.435Z,6.1
2022-10-20T02:23:07.410Z,6.2
2022-10-20T02:33:07.801Z,6.3
2022-10-20T02:43:07.855Z,6.3
2022-10-20T02:53:08.475Z,6.4
2022-10-20T03:03:09.293Z,6.4
2022-10-20T03:13:09.621Z,6.4
2022-10-20T03:23:10.563Z,6.4
2022-10-20T03:33:11.499Z,6.5
2022-10-20T03:43:12.520Z,6.5
2022-10-20T03:53:12.571Z,6.5
2022-10-20T04:03:13.092Z,6.4
2022-10-20T04:13:13.638Z,6.4
2022-10-20T04:23:14.220Z,6.4
2022-10-20T04:33:15.005Z,6.4
2022-10-20T04:53:15.608Z,6.4
2022-10-20T05:03:15.856Z,6.5
2022-10-20T05:13:16.872Z,6.5
2022-10-20T05:23:17.637Z,6.6
2022-10-20T05:33:18.665Z,6.6
2022-10-20T05:43:18.812Z,6.7
2022-10-20T05:53:19.148Z,6.8
2022-10-20T06:03:20.702Z,6.7
2022-10-20T06:13:20.087Z,6.8
2022-10-20T06:23:20.766Z,6.7
2022-10-20T06:33:21.070Z,6.8
2022-10-20T06:43:21.714Z,6.9
2022-10-20T06:53:22.450Z,7.1
2022-10-20T07:03:22.785Z,7.2
2022-10-20T07:13:23.446Z,7.4
2022-10-20T07:23:23.586Z,7.5
2022-10-20T07:33:23.662Z,7.6
2022-10-20T07:43:24.533Z,7.8
2022-10-20T07:53:24.764Z,8
2022-10-20T08:03:25.257Z,8.5
2022-10-20T08:13:25.797Z,8.8
2022-10-20T08:23:25.979Z,9.3
2022-10-20T08:33:26.210Z,9.7
2022-10-20T08:43:26.370Z,10
2022-10-20T08:53:27.362Z,9.9
2022-10-20T09:03:27.643Z,10.6
2022-10-20T09:13:27.806Z,10.9
2022-10-20T09:23:40.377Z,11.5
2022-10-20T09:33:28.666Z,12.1
2022-10-20T09:43:28.849Z,12.6
2022-10-20T09:53:29.745Z,13
2022-10-20T10:03:30.676Z,13.5
2022-10-20T10:13:30.858Z,14.5
2022-10-20T10:23:31.206Z,14.7
2022-10-20T10:33:31.941Z,15.4
2022-10-20T10:43:32.856Z,15.5
2022-10-20T11:03:36.258Z,15.7
2022-10-20T11:43:35.000Z,15.4
2022-10-20T12:03:36.317Z,15.2
2022-10-20T12:43:38.153Z,14.9
2022-10-20T12:53:38.731Z,14.7
2022-10-20T13:03:39.446Z,14.5
2022-10-20T13:13:40.279Z,14.3
2022-10-20T13:23:41.303Z,14.3
2022-10-20T13:43:42.444Z,14.5
2022-10-20T13:53:43.165Z,14.6
2022-10-20T14:03:43.618Z,14.9
2022-10-20T14:23:44.689Z,15.3
2022-10-20T14:33:45.398Z,15.4
2022-10-20T14:43:45.721Z,16.5
2022-10-20T14:53:46.730Z,17.3
2022-10-20T15:03:47.779Z,17.4
2022-10-20T15:13:47.868Z,17.4
2022-10-20T15:23:48.833Z,17.4
2022-10-20T15:33:48.974Z,16.8
2022-10-20T15:43:49.505Z,16.4
2022-10-20T15:53:49.589Z,16
2022-10-20T16:03:50.450Z,15.9
2022-10-20T16:13:51.435Z,15.7
2022-10-20T16:23:52.213Z,15.5
2022-10-20T16:33:52.364Z,15.3
2022-10-20T16:43:54.389Z,15.1
2022-10-20T17:03:54.806Z,14.8
2022-10-20T17:13:55.130Z,14.7
2022-10-20T17:23:55.250Z,14.6
2022-10-20T17:24:17.170Z,14.6
2022-10-20T17:44:02.087Z,14.6
2022-10-20T17:54:02.737Z,14.7
2022-10-20T18:04:03.144Z,14.7
2022-10-20T18:24:05.035Z,15
2022-10-20T19:04:06.806Z,15.2
2022-10-20T19:14:07.712Z,15.2
2022-10-20T19:24:08.371Z,15.2
2022-10-20T19:34:08.425Z,15.2
2022-10-20T19:44:08.972Z,15
2022-10-20T19:54:09.226Z,15
2022-10-20T20:04:10.147Z,14.9
2022-10-20T20:14:10.850Z,14.8
2022-10-20T20:24:11.750Z,14.9
2022-10-20T20:34:12.456Z,15.1
2022-10-20T20:44:13.235Z,15.1
2022-10-20T20:54:13.345Z,15.2
2022-10-20T21:04:13.988Z,15.4
2022-10-20T21:14:14.626Z,15.5
2022-10-20T21:24:15.423Z,15.7
2022-10-20T21:34:16.478Z,15.7
2022-10-20T21:44:16.850Z,15.7
2022-10-20T21:54:17.488Z,15.9
2022-10-20T22:04:18.212Z,16
2022-10-20T22:14:18.318Z,16.1
2022-10-20T22:24:18.421Z,16.2
2022-10-20T22:34:19.320Z,16.2
2022-10-20T22:54:20.112Z,16.6
2022-10-20T23:04:20.285Z,16.6
2022-10-20T23:14:21.167Z,16.7
2022-10-20T23:24:21.632Z,16.7
2022-10-20T23:34:22.529Z,16.7
2022-10-20T23:54:23.658Z,16
